Time;durP1;ratioP1;P1;durP2;ratioP2;P2;SDS_P1;SDS_P2;PMS_P1;PMS_P2;Temp;Humidity;BMP_temperature;BMP_pressure;BME280_temperature;BME280_humidity;BME280_pressure;Samples;Min_cycle;Max_cycle;Signal;HPM_P1;HPM_P2
2023/12/13 07:37:56;;;;;;;0.20;0.20;;;;;;;16.79;100.00;75647.19;6248653;22;20028;-92
2023/12/13 07:40:22;;;;;;;0.20;0.20;;;;;;;17.03;100.00;75678.75;6218540;23;20012;-94
2023/12/13 07:42:47;;;;;;;0.20;0.20;;;;;;;16.94;100.00;75662.38;6218744;23;20001;-95
2023/12/13 07:45:13;;;;;;;0.20;0.20;;;;;;;17.42;100.00;75716.00;6218519;23;20008;-95
2023/12/13 07:47:39;;;;;;;0.20;0.20;;;;;;;17.91;100.00;75776.41;6218483;23;20004;-95
2023/12/13 07:50:08;;;;;;;0.20;0.20;;;;;;;17.95;100.00;75786.81;6219006;23;20004;-94
2023/12/13 07:52:33;;;;;;;0.20;0.20;;;;;;;18.05;100.00;75799.41;6218542;23;20031;-94
2023/12/13 07:54:58;;;;;;;0.20;0.20;;;;;;;18.53;98.66;75850.25;6218530;23;20012;-94
2023/12/13 07:57:24;;;;;;;0.20;0.20;;;;;;;18.53;97.36;75844.06;6218300;23;20005;-93
2023/12/13 07:59:50;;;;;;;0.20;0.20;;;;;;;18.42;96.67;75837.03;6218597;23;20015;-94
2023/12/13 08:02:20;;;;;;;0.20;0.20;;;;;;;19.35;92.21;75947.00;6221086;23;20344;-94
2023/12/13 08:04:45;;;;;;;0.20;0.20;;;;;;;19.17;91.58;75924.75;6218773;23;20007;-92
2023/12/13 08:07:10;;;;;;;0.20;0.20;;;;;;;19.56;90.19;75971.63;6218057;23;20091;-94
2023/12/13 08:09:36;;;;;;;0.20;0.20;;;;;;;19.81;88.04;76003.88;6213318;23;20384;-93
2023/12/13 08:12:01;;;;;;;0.20;0.20;;;;;;;19.81;86.87;75997.69;6188049;23;20001;-93
2023/12/13 08:14:30;;;;;;;0.20;0.20;;;;;;;20.38;83.63;76065.00;6188601;23;20291;-92
2023/12/13 08:16:57;;;;;;;0.20;0.20;;;;;;;20.07;83.60;76028.94;6188176;23;20004;-93
2023/12/13 08:19:22;;;;;;;0.20;0.20;;;;;;;20.02;83.23;76025.13;6188288;23;20031;-92
2023/12/13 08:21:48;;;;;;;0.20;0.20;;;;;;;20.19;83.32;76045.59;6188470;23;20009;-94
2023/12/13 08:24:13;;;;;;;0.20;0.20;;;;;;;19.76;84.12;75991.66;6188375;23;20013;-96
2023/12/13 08:26:39;;;;;;;0.20;0.20;;;;;;;19.79;80.96;75998.09;6190999;23;20012;-93
2023/12/13 08:29:31;;;;;;;0.20;0.20;;;;;;;19.85;81.59;76005.91;6218483;23;20005;-94
2023/12/13 08:31:59;;;;;;;0.20;0.20;;;;;;;20.16;80.28;76036.34;6192683;23;20005;-93
2023/12/13 08:34:25;;;;;;;0.20;0.20;;;;;;;20.13;79.99;76036.16;6216258;23;20005;-93
2023/12/13 08:36:56;;;;;;;0.20;0.20;;;;;;;19.67;83.17;75984.28;6186935;23;20013;-94
2023/12/13 08:39:22;;;;;;;0.20;0.20;;;;;;;19.84;82.30;76004.09;6162482;23;20005;-95
2023/12/13 08:41:47;;;;;;;0.20;0.20;;;;;;;19.58;83.56;75970.63;6184440;23;20005;-94
2023/12/13 08:44:13;;;;;;;0.20;0.20;;;;;;;19.39;85.66;75948.41;6159017;23;20005;-94
2023/12/13 08:46:38;;;;;;;0.20;0.20;;;;;;;19.54;83.24;75968.63;6183773;23;20001;-94
2023/12/13 08:49:04;;;;;;;0.20;0.20;;;;;;;19.87;80.44;76002.69;6158993;23;20016;-95
2023/12/13 08:51:29;;;;;;;0.20;0.20;;;;;;;20.24;80.17;76050.97;6183717;23;20005;-94
2023/12/13 08:53:58;;;;;;;0.20;0.20;;;;;;;19.87;79.62;76010.53;6184292;23;20056;-95
2023/12/13 08:56:24;;;;;;;0.20;0.20;;;;;;;20.17;78.50;76042.56;6159070;23;20012;-95
2023/12/13 08:58:49;;;;;;;0.20;0.20;;;;;;;20.35;77.45;76062.00;6183859;23;20005;-93
2023/12/13 09:01:14;;;;;;;0.20;0.20;;;;;;;20.73;75.88;76103.09;6160011;23;20025;-94
2023/12/13 09:03:40;;;;;;;0.20;0.20;;;;;;;21.16;73.29;76154.81;6159379;23;20075;-94
2023/12/13 09:06:06;;;;;;;0.20;0.20;;;;;;;21.29;70.66;76169.84;6186314;23;20071;-95
2023/12/13 09:08:33;;;;;;;0.20;0.20;;;;;;;21.71;68.95;76219.19;6186632;23;20043;-94
2023/12/13 09:10:59;;;;;;;0.20;0.20;;;;;;;21.35;69.45;76179.91;6187490;23;20028;-94
2023/12/13 09:13:24;;;;;;;0.20;0.20;;;;;;;21.55;67.96;76202.75;6162994;23;20005;-94
2023/12/13 09:15:49;;;;;;;0.20;0.20;;;;;;;21.89;65.91;76240.88;6188208;23;20430;-93
2023/12/13 09:18:15;;;;;;;0.20;0.20;;;;;;;21.86;66.58;76240.06;6163373;23;20072;-95
2023/12/13 09:20:40;;;;;;;0.20;0.20;;;;;;;21.80;65.45;76235.66;6188012;23;20009;-94
2023/12/13 09:23:06;;;;;;;0.20;0.20;;;;;;;21.70;66.17;76223.63;6187572;23;20001;-94
2023/12/13 09:25:32;;;;;;;0.20;0.20;;;;;;;21.71;65.93;76222.00;6162842;23;20446;-95
2023/12/13 09:27:57;;;;;;;0.20;0.20;;;;;;;21.90;63.99;76247.09;6186545;23;20071;-94
2023/12/13 09:30:23;;;;;;;0.20;0.20;;;;;;;22.22;62.51;76282.22;6186594;23;20334;-93
2023/12/13 09:32:49;;;;;;;0.20;0.20;;;;;;;22.60;60.13;76329.56;6162115;23;21208;-94
2023/12/13 09:35:14;;;;;;;0.20;0.20;;;;;;;22.01;60.82;76257.53;6186623;23;20001;-93
2023/12/13 09:37:41;;;;;;;0.20;0.20;;;;;;;22.78;58.37;76345.59;6183858;23;20016;-94
2023/12/13 09:40:14;;;;;;;0.20;0.20;;;;;;;22.72;58.68;76341.19;6190997;23;20017;-94
2023/12/13 09:42:46;;;;;;;0.20;0.20;;;;;;;22.44;59.49;76310.91;6190978;23;20005;-94
2023/12/13 09:45:20;;;;;;;0.20;0.20;;;;;;;22.20;59.50;76277.56;6192800;23;20013;-95
2023/12/13 09:47:49;;;;;;;0.20;0.20;;;;;;;22.30;58.93;76291.84;6191463;23;20493;-94
2023/12/13 09:50:14;;;;;;;0.20;0.20;;;;;;;23.27;55.90;76403.41;6191458;23;20011;-93
2023/12/13 09:52:41;;;;;;;0.20;0.20;;;;;;;23.14;54.66;76390.59;6191276;23;20008;-92
2023/12/13 09:55:08;;;;;;;0.20;0.20;;;;;;;22.87;54.64;76358.66;6190851;23;20004;-94
2023/12/13 09:57:34;;;;;;;0.20;0.20;;;;;;;23.11;55.08;76384.16;6190793;23;20008;-94
2023/12/13 10:00:00;;;;;;;0.20;0.20;;;;;;;22.64;55.13;76331.56;6191356;23;20005;-93
2023/12/13 10:02:26;;;;;;;0.20;0.20;;;;;;;23.19;56.20;76396.63;6191278;23;20027;-94
2023/12/13 10:04:52;;;;;;;0.20;0.20;;;;;;;23.29;60.67;76405.25;6191008;23;20035;-95
2023/12/13 10:07:18;;;;;;;0.20;0.20;;;;;;;22.78;64.74;76348.41;6191220;23;20012;-95
2023/12/13 10:09:45;;;;;;;0.20;0.20;;;;;;;22.93;64.61;76368.72;6191180;23;20005;-94
2023/12/13 10:12:12;;;;;;;0.20;0.20;;;;;;;22.77;67.70;76350.03;6191019;23;20016;-95
2023/12/13 10:14:38;;;;;;;0.20;0.20;;;;;;;22.54;68.20;76316.72;6190395;23;20437;-94
2023/12/13 10:17:04;;;;;;;0.20;0.20;;;;;;;22.13;68.05;76271.97;6191426;23;20015;-96
2023/12/13 10:19:31;;;;;;;0.20;0.20;;;;;;;21.51;72.09;76200.75;6190915;23;20425;-95
2023/12/13 10:21:56;;;;;;;0.20;0.20;;;;;;;21.64;68.45;76216.41;6189640;23;20005;-95
2023/12/13 10:24:23;;;;;;;0.20;0.20;;;;;;;22.10;68.72;76270.56;6189726;23;20007;-95
2023/12/13 10:26:50;;;;;;;0.20;0.20;;;;;;;22.04;68.01;76257.69;6190974;23;20104;-96
2023/12/13 10:29:18;;;;;;;0.20;0.20;;;;;;;22.14;67.96;76270.34;6190300;23;20058;-96
2023/12/13 10:31:47;;;;;;;0.20;0.20;;;;;;;21.50;69.66;76196.75;6189951;23;20009;-96
2023/12/13 10:34:13;;;;;;;0.20;0.20;;;;;;;21.00;74.17;76138.38;6190035;23;20108;-96
2023/12/13 10:36:38;;;;;;;0.20;0.20;;;;;;;20.80;75.30;76114.31;6189700;23;20016;-95
2023/12/13 10:39:07;;;;;;;0.20;0.20;;;;;;;20.99;74.34;76136.59;6189369;23;20005;-96
2023/12/13 10:41:34;;;;;;;0.20;0.20;;;;;;;21.22;72.57;76160.84;6189012;23;19997;-95
2023/12/13 10:44:02;;;;;;;0.20;0.20;;;;;;;21.55;71.29;76205.56;6189093;23;20091;-95
2023/12/13 10:46:35;;;;;;;0.20;0.20;;;;;;;20.93;76.05;76127.13;6214819;23;20055;-96
2023/12/13 10:49:05;;;;;;;0.20;0.20;;;;;;;21.05;74.45;76141.00;6166413;23;20107;-95
2023/12/13 10:51:33;;;;;;;0.20;0.20;;;;;;;20.88;75.73;76124.56;6189495;23;20009;-94
2023/12/13 10:54:01;;;;;;;0.20;0.20;;;;;;;20.38;78.38;76062.78;6197174;23;20008;-96
2023/12/13 10:56:27;;;;;;;0.20;0.20;;;;;;;20.06;80.39;76024.94;6168327;23;20013;-94
2023/12/13 11:02:18;;;;;;;0.20;0.20;;;;;;;19.32;89.12;75942.78;6217174;22;20028;-95
